This is the latest recevied weather packets stored in our database for station/object GW1495. If no packets are shown the sender has not sent any weather packets the latest 10 day(s).
| Time | Temp. | Humidity | Pressure | Rain* | Wind** | Luminosity | Snow |
|---|---|---|---|---|---|---|---|
| 1777823677 | 13.89° C | 35% | 1025.3 hPa | 0 mm | - | - | - |
| 1777821138 | 12.78° C | 41% | 1026 hPa | 0 mm | - | - | - |
| 1777820790 | 12.22° C | 35% | 1026 hPa | 0 mm | - | - | - |
| 1777820078 | 12.22° C | 49% | 1026 hPa | 0 mm | - | - | - |
| 1777818641 | 11.67° C | 45% | 1025.7 hPa | 0 mm | - | - | - |
| 1777816828 | 10° C | 66% | 1025.7 hPa | 0 mm | - | - | - |
| 1777808179 | 0° C | 98% | 1025.3 hPa | 0 mm | - | - | - |
| 1777807091 | 0° C | 98% | 1025.3 hPa | 0 mm | - | - | - |
| 1777804936 | -0.56° C | 98% | 1024.7 hPa | 0 mm | - | - | - |
| 1777802774 | -1.11° C | 98% | 1024.3 hPa | 0 mm | - | - | - |
| 1777798814 | -0.56° C | 97% | 1024.3 hPa | 0 mm | - | - | - |
| 1777797760 | 0° C | 97% | 1024 hPa | 0 mm | - | - | - |
| 1777797038 | 0° C | 97% | 1024 hPa | 0 mm | - | - | - |
| 1777796692 | 0° C | 97% | 1023.7 hPa | 0 mm | - | - | - |
| 1777791984 | 0.56° C | 97% | 1023 hPa | 0 mm | - | - | - |
| 1777789092 | 1.11° C | 96% | 1023 hPa | 0 mm | - | - | - |
| 1777786957 | 1.67° C | 93% | 1022.6 hPa | 0 mm | - | - | - |
| 1777786583 | 1.67° C | 92% | 1022.6 hPa | 0 mm | - | - | - |
| 1777786251 | 1.67° C | 92% | 1022.6 hPa | 0 mm | - | - | - |
| 1777785535 | 2.22° C | 91% | 1022.6 hPa | 0 mm | - | - | - |
| 1777783725 | 2.78° C | 91% | 1022.6 hPa | 0 mm | - | - | - |
| 1777783362 | 2.78° C | 91% | 1022.6 hPa | 0 mm | - | - | - |
| 1777782283 | 3.33° C | 91% | 1022.3 hPa | 0 mm | - | - | - |
| 1777781903 | 3.33° C | 90% | 1022.3 hPa | 0 mm | - | - | - |
| 1777781183 | 3.33° C | 90% | 1022.3 hPa | 0 mm | - | - | - |
* Rain since midnight (hover to see other rain measurements)
** Current wind speed in m/s (hover to see current wind gust speed)